createdAt,value
2023-02-02T00:02:02.036Z,3.83
2023-02-02T00:04:33.964Z,2.40
2023-02-02T00:07:02.862Z,3.13
2023-02-02T00:09:31.253Z,2.90
2023-02-02T00:11:59.456Z,2.00
2023-02-02T00:14:26.633Z,2.67
2023-02-02T00:16:56.923Z,3.30
2023-02-02T00:19:26.620Z,2.27
2023-02-02T00:21:56.443Z,2.10
2023-02-02T00:24:23.346Z,2.67
2023-02-02T00:26:55.430Z,2.47
2023-02-02T00:29:29.329Z,2.30
2023-02-02T00:31:56.287Z,2.60
2023-02-02T00:34:23.778Z,3.13
2023-02-02T00:36:51.136Z,3.77
2023-02-02T00:39:21.552Z,2.57
2023-02-02T00:41:49.054Z,2.87
2023-02-02T00:44:34.540Z,3.10
2023-02-02T00:47:01.803Z,2.73
2023-02-02T00:49:28.505Z,3.33
2023-02-02T00:51:55.181Z,3.07
2023-02-02T00:54:21.999Z,3.57
2023-02-02T00:56:48.621Z,2.80
2023-02-02T00:59:15.263Z,2.30
2023-02-02T01:01:41.853Z,2.87
2023-02-02T01:04:08.838Z,2.07
2023-02-02T01:06:35.844Z,2.20
2023-02-02T01:09:02.931Z,2.33
2023-02-02T01:11:30.873Z,2.33
2023-02-02T01:13:57.905Z,1.60
2023-02-02T01:16:24.847Z,2.70
2023-02-02T01:18:52.282Z,2.07
2023-02-02T01:21:19.733Z,2.80
2023-02-02T01:23:46.404Z,1.97
2023-02-02T01:26:13.886Z,2.37
2023-02-02T01:28:40.801Z,1.33
2023-02-02T01:31:11.271Z,1.97
2023-02-02T01:33:38.247Z,2.13
2023-02-02T01:36:09.938Z,2.40
2023-02-02T01:38:36.990Z,2.07
2023-02-02T01:41:04.637Z,1.73
2023-02-02T01:43:43.263Z,2.77
2023-02-02T01:46:15.299Z,2.60
2023-02-02T01:48:48.083Z,2.27
2023-02-02T01:51:20.351Z,2.20
2023-02-02T01:53:49.413Z,2.53
2023-02-02T01:56:23.880Z,2.90
2023-02-02T01:58:50.825Z,2.27
2023-02-02T02:01:17.477Z,1.80
2023-02-02T02:03:44.246Z,1.73
2023-02-02T02:06:15.441Z,1.87
2023-02-02T02:09:02.679Z,2.87
2023-02-02T02:11:30.592Z,1.57
2023-02-02T02:14:19.249Z,2.30
2023-02-02T02:17:30.470Z,1.63
2023-02-02T02:20:53.739Z,2.23
2023-02-02T02:24:12.415Z,1.87
2023-02-02T02:27:07.310Z,2.20
2023-02-02T02:30:11.078Z,2.20
2023-02-02T02:32:59.318Z,1.63
2023-02-02T02:35:47.373Z,1.83
2023-02-02T02:38:35.275Z,1.90
2023-02-02T02:41:06.133Z,1.67
2023-02-02T02:43:42.975Z,2.17
2023-02-02T02:46:11.443Z,2.13
2023-02-02T02:48:38.357Z,1.83
2023-02-02T02:51:09.178Z,1.57
2023-02-02T02:53:37.558Z,1.60
2023-02-02T02:56:32.501Z,2.60
2023-02-02T02:59:09.270Z,1.93
2023-02-02T03:02:09.060Z,1.63
2023-02-02T03:04:55.775Z,1.70
2023-02-02T03:07:29.111Z,2.80
2023-02-02T03:09:58.362Z,1.53
2023-02-02T03:12:25.017Z,1.57
2023-02-02T03:14:51.659Z,1.57
2023-02-02T03:17:18.328Z,1.23
2023-02-02T03:19:44.933Z,2.53
2023-02-02T03:22:11.606Z,1.70
2023-02-02T03:24:38.185Z,2.27
2023-02-02T03:27:04.758Z,1.90
2023-02-02T03:29:31.448Z,1.23
2023-02-02T03:31:58.127Z,1.20
2023-02-02T03:34:24.743Z,2.00
2023-02-02T03:36:51.385Z,2.87
2023-02-02T03:39:18.011Z,1.30
2023-02-02T03:41:44.630Z,1.60
2023-02-02T03:44:11.277Z,1.50
2023-02-02T03:46:37.962Z,1.67
2023-02-02T03:49:04.620Z,1.70
2023-02-02T03:51:31.245Z,1.70
2023-02-02T03:53:57.901Z,2.33
2023-02-02T03:56:24.509Z,1.77
2023-02-02T03:58:51.267Z,1.47
2023-02-02T04:01:17.979Z,2.03
2023-02-02T04:03:46.244Z,1.87
2023-02-02T04:06:12.860Z,2.00
2023-02-02T04:08:39.512Z,1.87
2023-02-02T04:11:10.218Z,2.10
2023-02-02T04:13:36.835Z,1.63
2023-02-02T04:16:04.001Z,1.97
2023-02-02T04:18:30.590Z,1.80
2023-02-02T04:20:58.795Z,2.50
2023-02-02T04:23:26.112Z,2.20
2023-02-02T04:25:52.896Z,2.57
2023-02-02T04:28:19.889Z,2.40
2023-02-02T04:30:46.767Z,2.93
2023-02-02T04:33:13.439Z,2.83
2023-02-02T04:35:40.113Z,3.13
2023-02-02T04:38:07.265Z,3.13
2023-02-02T04:40:34.266Z,2.70
2023-02-02T04:43:00.851Z,2.63
2023-02-02T04:45:27.849Z,3.53
2023-02-02T04:47:54.568Z,2.60
2023-02-02T04:50:21.540Z,2.77
2023-02-02T04:52:48.203Z,3.23
2023-02-02T04:55:15.041Z,2.93
2023-02-02T04:57:41.753Z,3.70
2023-02-02T05:00:11.238Z,2.90
2023-02-02T05:02:39.630Z,3.03
2023-02-02T05:05:09.033Z,2.70
2023-02-02T05:07:35.784Z,3.57
2023-02-02T05:10:03.895Z,2.93
2023-02-02T05:12:30.726Z,3.20
2023-02-02T05:14:57.593Z,2.50
2023-02-02T05:17:24.245Z,2.77
2023-02-02T05:19:50.859Z,3.70
2023-02-02T05:22:17.480Z,2.63
2023-02-02T05:24:44.091Z,2.33
2023-02-02T05:27:10.716Z,2.60
2023-02-02T05:29:37.297Z,3.67
2023-02-02T05:32:04.433Z,2.77
2023-02-02T05:34:31.083Z,2.63
2023-02-02T05:36:57.731Z,3.63
2023-02-02T05:39:24.375Z,3.60
2023-02-02T05:41:51.042Z,4.35
2023-02-02T05:44:17.653Z,4.73
2023-02-02T05:46:45.200Z,3.60
2023-02-02T05:49:13.803Z,3.03
2023-02-02T05:51:47.672Z,3.47
2023-02-02T05:54:19.195Z,2.47
2023-02-02T05:56:47.630Z,2.93
2023-02-02T05:59:14.504Z,2.53
2023-02-02T06:01:41.227Z,3.17
2023-02-02T06:04:07.948Z,2.63
2023-02-02T06:06:35.752Z,2.30
2023-02-02T06:09:02.732Z,4.03
2023-02-02T06:11:29.764Z,4.27
2023-02-02T06:13:56.579Z,3.20
2023-02-02T06:16:23.739Z,2.33
2023-02-02T06:18:50.722Z,2.63
2023-02-02T06:21:19.689Z,2.57
2023-02-02T06:23:46.450Z,2.67
2023-02-02T06:26:14.063Z,2.53
2023-02-02T06:28:41.131Z,2.40
2023-02-02T06:31:10.496Z,2.10
2023-02-02T06:33:37.429Z,2.00
2023-02-02T06:36:06.284Z,2.37
2023-02-02T06:38:33.112Z,3.10
2023-02-02T06:41:00.759Z,2.20
2023-02-02T06:43:27.939Z,1.83
2023-02-02T06:45:54.665Z,2.20
2023-02-02T06:48:21.391Z,2.87
2023-02-02T06:50:48.198Z,2.27
2023-02-02T06:53:15.914Z,2.00
2023-02-02T06:55:42.745Z,1.67
2023-02-02T06:58:09.519Z,1.90
2023-02-02T07:00:38.164Z,2.80
2023-02-02T07:03:04.910Z,6.70
2023-02-02T07:05:31.988Z,38.50
2023-02-02T07:07:58.727Z,4.10
2023-02-02T07:11:15.843Z,6.47
2023-02-02T07:13:12.285Z,3.50
2023-02-02T07:15:40.148Z,1.00
2023-02-02T07:18:07.491Z,1.47
2023-02-02T07:20:34.347Z,1.57
2023-02-02T07:23:02.936Z,0.90
2023-02-02T07:25:29.526Z,0.97
2023-02-02T07:27:56.161Z,1.30
2023-02-02T07:30:22.851Z,1.27
2023-02-02T07:32:50.213Z,1.20
2023-02-02T07:35:17.293Z,2.00
2023-02-02T07:37:44.041Z,0.83
2023-02-02T07:40:11.536Z,2.10
2023-02-02T07:42:38.178Z,1.37
2023-02-02T07:45:26.619Z,2.50
2023-02-02T07:47:57.193Z,1.40
2023-02-02T07:50:25.263Z,1.10
2023-02-02T07:52:52.575Z,1.03
2023-02-02T07:55:19.809Z,1.20
2023-02-02T07:57:46.463Z,1.70
2023-02-02T08:00:13.662Z,4.33
2023-02-02T08:02:40.392Z,1.23
2023-02-02T08:05:07.447Z,1.07
2023-02-02T08:07:34.985Z,2.13
2023-02-02T08:10:01.726Z,1.00
2023-02-02T08:12:28.484Z,1.17
2023-02-02T08:14:55.131Z,2.13
2023-02-02T08:17:23.278Z,2.07
2023-02-02T08:19:50.266Z,1.07
2023-02-02T08:22:18.380Z,1.03
2023-02-02T08:24:46.687Z,1.10
2023-02-02T08:27:13.384Z,1.70
2023-02-02T08:29:40.086Z,1.57
2023-02-02T08:32:06.744Z,1.00
2023-02-02T08:34:36.773Z,1.93
2023-02-02T08:37:04.016Z,2.50
2023-02-02T08:39:30.700Z,0.93
2023-02-02T08:41:57.675Z,1.63
2023-02-02T08:44:25.144Z,2.57
2023-02-02T08:46:53.777Z,1.50
2023-02-02T08:49:20.475Z,2.77
2023-02-02T08:51:47.085Z,2.77
2023-02-02T08:54:13.752Z,2.80
2023-02-02T08:56:40.378Z,2.20
2023-02-02T08:59:07.590Z,1.90
2023-02-02T09:01:35.517Z,3.10
2023-02-02T09:04:05.113Z,5.27
2023-02-02T09:06:35.493Z,4.97
2023-02-02T09:09:02.980Z,3.37
2023-02-02T09:11:29.716Z,3.93
2023-02-02T09:13:58.677Z,2.70
2023-02-02T09:16:26.975Z,2.87
2023-02-02T09:18:55.121Z,3.20
2023-02-02T09:21:21.853Z,3.03
2023-02-02T09:23:49.832Z,1.90
2023-02-02T09:26:22.689Z,2.20
2023-02-02T09:28:56.256Z,3.00
2023-02-02T09:31:24.330Z,3.20
2023-02-02T09:33:51.696Z,3.00
2023-02-02T09:36:20.646Z,3.90
2023-02-02T09:38:48.099Z,2.23
2023-02-02T09:41:38.451Z,2.13
2023-02-02T09:44:38.886Z,3.47
2023-02-02T09:47:18.009Z,4.43
2023-02-02T09:50:05.617Z,4.93
2023-02-02T09:53:02.311Z,3.93
2023-02-02T09:55:39.173Z,2.90
2023-02-02T09:58:14.484Z,4.83
2023-02-02T10:00:55.203Z,1.83
2023-02-02T10:03:27.282Z,2.63
2023-02-02T10:06:14.433Z,1.80
2023-02-02T10:08:57.653Z,1.43
2023-02-02T10:11:32.906Z,2.00
2023-02-02T10:14:19.834Z,1.60
2023-02-02T10:16:49.364Z,1.50
2023-02-02T10:19:16.137Z,2.13
2023-02-02T10:22:06.331Z,2.50
2023-02-02T10:24:35.895Z,2.60
2023-02-02T10:27:11.697Z,1.93
2023-02-02T10:29:49.410Z,2.10
2023-02-02T10:32:34.105Z,2.03
2023-02-02T10:35:13.662Z,2.23
2023-02-02T10:37:51.597Z,5.23
2023-02-02T10:40:32.911Z,5.07
2023-02-02T10:43:48.429Z,4.53
2023-02-02T10:46:34.888Z,3.30
2023-02-02T10:49:33.499Z,2.60
2023-02-02T10:52:13.170Z,1.90
2023-02-02T10:55:16.407Z,2.57
2023-02-02T10:58:06.184Z,2.30
2023-02-02T11:00:51.992Z,1.63
2023-02-02T11:03:29.116Z,2.83
2023-02-02T11:06:21.174Z,3.83
2023-02-02T11:08:56.887Z,3.33
2023-02-02T11:11:32.892Z,4.60
2023-02-02T11:13:59.474Z,2.37
2023-02-02T11:16:41.622Z,2.17
2023-02-02T11:19:19.572Z,2.23
2023-02-02T11:21:49.023Z,1.97
2023-02-02T11:24:26.501Z,2.53
2023-02-02T11:27:06.794Z,2.80
2023-02-02T11:29:39.255Z,2.00
2023-02-02T11:32:25.020Z,1.90
2023-02-02T11:35:16.307Z,2.40
2023-02-02T11:37:58.240Z,1.90
2023-02-02T11:40:35.476Z,4.03
2023-02-02T11:43:24.333Z,3.07
2023-02-02T11:46:20.494Z,2.80
2023-02-02T11:48:59.257Z,2.13
2023-02-02T11:51:28.016Z,3.30
2023-02-02T11:54:06.675Z,2.27
2023-02-02T11:56:36.698Z,2.13
2023-02-02T11:59:04.150Z,2.27
2023-02-02T12:01:39.396Z,2.40
2023-02-02T12:04:18.456Z,2.83
2023-02-02T12:06:45.867Z,2.10
2023-02-02T12:09:13.851Z,3.30
2023-02-02T12:11:52.479Z,4.77
2023-02-02T12:14:48.163Z,3.47
2023-02-02T12:17:53.371Z,5.90
2023-02-02T12:20:42.851Z,3.07
2023-02-02T12:23:33.095Z,3.20
2023-02-02T12:26:23.788Z,3.97
2023-02-02T12:28:59.431Z,2.80
2023-02-02T12:31:59.692Z,3.13
2023-02-02T12:35:03.778Z,3.57
2023-02-02T12:37:49.586Z,3.27
2023-02-02T12:40:31.403Z,4.20
2023-02-02T12:43:20.652Z,5.33
2023-02-02T12:46:11.763Z,4.87
2023-02-02T12:48:57.576Z,4.53
2023-02-02T12:51:35.315Z,3.83
2023-02-02T12:54:34.282Z,4.20
2023-02-02T12:57:33.301Z,6.47
2023-02-02T13:00:18.701Z,7.23
2023-02-02T13:03:05.971Z,4.77
2023-02-02T13:06:10.493Z,3.27
2023-02-02T13:08:55.691Z,5.07
2023-02-02T13:11:44.753Z,5.97
2023-02-02T13:14:24.890Z,6.03
2023-02-02T13:16:56.383Z,5.00
2023-02-02T13:19:35.400Z,4.73
2023-02-02T13:22:04.513Z,5.17
2023-02-02T13:24:36.057Z,3.87
2023-02-02T13:27:06.117Z,3.87
2023-02-02T13:29:48.406Z,2.97
2023-02-02T13:32:21.591Z,3.63
2023-02-02T13:35:13.657Z,3.53
2023-02-02T13:38:04.165Z,3.63
2023-02-02T13:40:38.183Z,3.90
2023-02-02T13:43:33.103Z,3.57
2023-02-02T13:46:06.629Z,3.40
2023-02-02T13:48:42.232Z,3.57
2023-02-02T13:51:40.217Z,3.70
2023-02-02T13:54:51.445Z,7.07
2023-02-02T13:57:52.868Z,4.00
2023-02-02T14:00:24.801Z,3.60
2023-02-02T14:02:55.991Z,4.33
2023-02-02T14:05:26.109Z,4.00
2023-02-02T14:08:03.043Z,4.90
2023-02-02T14:10:37.025Z,4.17
2023-02-02T14:13:33.951Z,3.10
2023-02-02T14:16:05.422Z,3.60
2023-02-02T14:18:50.794Z,3.00
2023-02-02T14:21:32.777Z,3.27
2023-02-02T14:24:00.313Z,4.63
2023-02-02T14:26:45.573Z,4.00
2023-02-02T14:29:30.552Z,3.20
2023-02-02T14:32:11.442Z,3.23
2023-02-02T14:34:45.145Z,3.47
2023-02-02T14:37:23.987Z,3.50
2023-02-02T14:40:06.103Z,3.70
2023-02-02T14:42:57.717Z,2.50
2023-02-02T14:45:33.717Z,2.23
2023-02-02T14:48:06.311Z,3.27
2023-02-02T14:50:43.646Z,3.27
2023-02-02T14:53:28.411Z,3.40
2023-02-02T14:56:03.087Z,2.63
2023-02-02T14:58:52.421Z,3.60
2023-02-02T15:01:25.245Z,2.50
2023-02-02T15:03:55.837Z,2.90
2023-02-02T15:06:37.288Z,2.47
2023-02-02T15:09:23.156Z,4.30
2023-02-02T15:12:00.792Z,4.07
2023-02-02T15:14:33.677Z,2.90
2023-02-02T15:17:12.413Z,2.80
2023-02-02T15:19:44.732Z,2.37
2023-02-02T15:22:32.065Z,3.27
2023-02-02T15:25:03.964Z,2.43
2023-02-02T15:27:31.774Z,2.10
2023-02-02T15:30:04.565Z,2.63
2023-02-02T15:32:32.051Z,2.30
2023-02-02T15:35:02.809Z,2.40
2023-02-02T15:37:41.547Z,2.17
2023-02-02T15:40:23.920Z,3.40
2023-02-02T15:42:55.674Z,3.20
2023-02-02T15:45:29.564Z,2.80
2023-02-02T15:47:58.895Z,2.97
2023-02-02T15:50:26.951Z,3.80
2023-02-02T15:52:55.193Z,3.00
2023-02-02T15:55:34.310Z,3.47
2023-02-02T15:58:02.263Z,3.50
2023-02-02T16:00:34.938Z,2.97
2023-02-02T16:03:12.915Z,3.80
2023-02-02T16:05:47.589Z,2.93
2023-02-02T16:08:36.327Z,3.10
2023-02-02T16:11:20.773Z,2.80
2023-02-02T16:13:59.773Z,2.60
2023-02-02T16:16:32.808Z,3.20
2023-02-02T16:19:05.496Z,2.87
2023-02-02T16:21:34.098Z,4.10
2023-02-02T16:24:03.597Z,3.73
2023-02-02T16:26:32.443Z,3.67
2023-02-02T16:28:59.675Z,4.83
2023-02-02T16:31:28.694Z,4.70
2023-02-02T16:33:56.845Z,3.97
2023-02-02T16:36:26.662Z,4.17
2023-02-02T16:38:55.020Z,4.50
2023-02-02T16:41:34.130Z,4.03
2023-02-02T16:44:33.099Z,4.77
2023-02-02T16:47:00.127Z,5.00
2023-02-02T16:49:27.809Z,5.23
2023-02-02T16:52:08.509Z,5.67
2023-02-02T16:54:35.439Z,4.77
2023-02-02T16:57:03.960Z,5.07
2023-02-02T16:59:34.557Z,5.47
2023-02-02T17:02:22.505Z,5.50
2023-02-02T17:04:53.227Z,5.23
2023-02-02T17:07:21.178Z,5.90
2023-02-02T17:09:48.869Z,4.43
2023-02-02T17:12:30.669Z,4.27
2023-02-02T17:15:23.727Z,4.47
2023-02-02T17:17:52.054Z,4.30
2023-02-02T17:20:19.365Z,4.17
2023-02-02T17:22:52.094Z,4.60
2023-02-02T17:25:41.905Z,4.20
2023-02-02T17:28:15.729Z,4.07
2023-02-02T17:30:44.116Z,5.07
2023-02-02T17:33:14.780Z,4.40
2023-02-02T17:35:53.827Z,3.87
2023-02-02T17:38:23.577Z,4.50
2023-02-02T17:40:51.062Z,4.47
2023-02-02T17:43:17.707Z,4.50
2023-02-02T17:45:44.404Z,4.43
2023-02-02T17:48:14.276Z,4.70
2023-02-02T17:50:42.262Z,4.53
2023-02-02T17:53:18.167Z,4.33
2023-02-02T17:55:45.847Z,4.20
2023-02-02T17:58:16.938Z,5.17
2023-02-02T18:00:48.433Z,4.43
2023-02-02T18:03:27.995Z,4.47
2023-02-02T18:05:55.755Z,4.73
2023-02-02T18:08:22.386Z,4.63
2023-02-02T18:10:49.400Z,4.90
2023-02-02T18:13:19.353Z,4.80
2023-02-02T18:15:46.642Z,5.10
2023-02-02T18:18:13.372Z,4.30
2023-02-02T18:20:48.264Z,5.97
2023-02-02T18:23:15.765Z,4.40
2023-02-02T18:25:42.774Z,4.93
2023-02-02T18:28:10.754Z,4.97
2023-02-02T18:30:41.061Z,5.20
2023-02-02T18:33:12.202Z,5.87
2023-02-02T18:35:43.493Z,5.60
2023-02-02T18:38:10.596Z,5.60
2023-02-02T18:40:37.920Z,5.60
2023-02-02T18:43:04.571Z,5.87
2023-02-02T18:45:31.251Z,5.90
2023-02-02T18:47:57.908Z,6.30
2023-02-02T18:50:24.630Z,6.10
2023-02-02T18:52:51.260Z,6.27
2023-02-02T18:55:17.870Z,6.17
2023-02-02T18:57:44.514Z,7.63
2023-02-02T19:00:11.845Z,8.23
2023-02-02T19:02:38.814Z,8.17
2023-02-02T19:05:24.585Z,9.40
2023-02-02T19:07:58.051Z,12.90
2023-02-02T19:10:26.735Z,10.93
2023-02-02T19:12:58.173Z,13.47
2023-02-02T19:15:26.611Z,14.77
2023-02-02T19:17:55.001Z,13.27
2023-02-02T19:20:28.212Z,12.17
2023-02-02T19:23:25.369Z,11.57
2023-02-02T19:25:54.231Z,10.97
2023-02-02T19:28:31.001Z,12.13
2023-02-02T19:31:00.107Z,11.03
2023-02-02T19:33:48.265Z,11.37
2023-02-02T19:36:23.126Z,10.40
2023-02-02T19:38:55.538Z,9.87
2023-02-02T19:41:25.149Z,9.90
2023-02-02T19:43:56.953Z,9.90
2023-02-02T19:46:26.950Z,10.00
2023-02-02T19:49:12.547Z,10.43
2023-02-02T19:51:45.305Z,10.13
2023-02-02T19:54:26.760Z,9.23
2023-02-02T19:57:05.254Z,12.63
2023-02-02T19:59:35.598Z,9.67
2023-02-02T20:02:40.042Z,10.73
2023-02-02T20:05:15.541Z,9.17
2023-02-02T20:07:42.332Z,9.30
2023-02-02T20:10:21.177Z,9.73
2023-02-02T20:12:48.052Z,8.87
2023-02-02T20:15:22.244Z,7.93
2023-02-02T20:17:48.935Z,8.60
2023-02-02T20:20:25.933Z,8.17
2023-02-02T20:22:53.720Z,8.27
2023-02-02T20:25:20.523Z,8.53
2023-02-02T20:27:47.261Z,8.00
2023-02-02T20:30:26.875Z,7.60
2023-02-02T20:32:58.832Z,8.40
2023-02-02T20:35:36.037Z,8.03
2023-02-02T20:38:31.999Z,7.60
2023-02-02T20:40:59.232Z,8.27
2023-02-02T20:43:25.971Z,8.87
2023-02-02T20:45:52.748Z,7.97
2023-02-02T20:48:19.703Z,8.10
2023-02-02T20:50:46.926Z,9.50
2023-02-02T20:53:16.372Z,8.97
2023-02-02T20:55:44.538Z,10.40
2023-02-02T20:58:12.928Z,10.97
2023-02-02T21:00:40.027Z,9.83
2023-02-02T21:03:06.635Z,10.00
2023-02-02T21:05:33.327Z,11.97
2023-02-02T21:07:59.987Z,11.43
2023-02-02T21:10:26.993Z,10.80
2023-02-02T21:12:53.879Z,10.90
2023-02-02T21:15:20.460Z,12.13
2023-02-02T21:17:47.084Z,11.47
2023-02-02T21:20:14.754Z,11.43
2023-02-02T21:22:41.741Z,13.10
2023-02-02T21:25:09.354Z,12.10
2023-02-02T21:27:37.567Z,13.33
2023-02-02T21:30:04.949Z,12.47
2023-02-02T21:32:33.538Z,12.43
2023-02-02T21:35:00.393Z,13.60
2023-02-02T21:37:27.116Z,13.43
2023-02-02T21:39:58.237Z,13.37
2023-02-02T21:42:25.943Z,14.50
2023-02-02T21:44:54.005Z,14.40
2023-02-02T21:47:37.516Z,13.23
2023-02-02T21:50:18.045Z,14.77
2023-02-02T21:52:45.034Z,14.13
2023-02-02T21:55:35.980Z,14.77
2023-02-02T21:58:18.462Z,13.33
2023-02-02T22:00:45.406Z,14.43
2023-02-02T22:03:33.990Z,13.17
2023-02-02T22:06:23.010Z,14.70
2023-02-02T22:08:50.873Z,14.73
2023-02-02T22:11:24.225Z,14.63
2023-02-02T22:13:52.578Z,14.17
2023-02-02T22:16:20.816Z,16.63
2023-02-02T22:18:48.083Z,15.13
2023-02-02T22:21:16.560Z,16.37
2023-02-02T22:23:44.187Z,15.40
2023-02-02T22:26:31.208Z,16.43
2023-02-02T22:28:57.822Z,15.63
2023-02-02T22:31:24.734Z,15.43
2023-02-02T22:33:51.482Z,15.70
2023-02-02T22:36:18.120Z,16.43
2023-02-02T22:38:44.731Z,16.33
2023-02-02T22:41:11.474Z,15.63
2023-02-02T22:43:38.113Z,16.87
2023-02-02T22:46:05.132Z,18.43
2023-02-02T22:48:31.906Z,17.37
2023-02-02T22:50:58.556Z,16.80
2023-02-02T22:53:25.212Z,18.00
2023-02-02T22:55:56.411Z,18.40
2023-02-02T22:58:24.603Z,15.77
2023-02-02T23:00:51.936Z,15.33
2023-02-02T23:03:18.690Z,15.77
2023-02-02T23:05:45.404Z,16.37
2023-02-02T23:08:12.007Z,15.77
2023-02-02T23:10:38.768Z,16.40
2023-02-02T23:13:06.056Z,14.90
2023-02-02T23:15:33.391Z,16.13
2023-02-02T23:18:00.420Z,16.47
2023-02-02T23:20:27.312Z,16.27
2023-02-02T23:22:54.199Z,14.80
2023-02-02T23:25:21.917Z,15.87
2023-02-02T23:27:48.949Z,16.07
2023-02-02T23:30:15.693Z,16.73
2023-02-02T23:32:42.430Z,15.83
2023-02-02T23:35:10.971Z,16.23
2023-02-02T23:37:37.856Z,17.43
2023-02-02T23:40:05.221Z,16.60
2023-02-02T23:42:32.119Z,15.80
2023-02-02T23:44:58.729Z,16.87
2023-02-02T23:47:25.883Z,17.43
2023-02-02T23:49:52.942Z,17.33
2023-02-02T23:52:19.912Z,16.77
2023-02-02T23:54:46.646Z,17.33
2023-02-02T23:57:13.292Z,17.83
2023-02-02T23:59:39.963Z,16.27
